Mount Pleasant Rgnl Information

FAA: OSA - ICAO: KOSA

Mount Pleasant Rgnl (Airport) Location

State Texas
County Titus
City Mount Pleasant
Mount Pleasant Rgnl (Airport) is 3 miles south of Mount Pleasant, TX.
Latitude 33-05-48.8000N
Longitude 094-57-42.3000W
Elevation 364ft

Mount Pleasant Rgnl METARs

METAR KOSA 191230Z AUTO 19011G18KT 10SM CLR 22/20 A2981 RMK AO2 T02250204
Altimeter 29.81"
Temperature 22.5°C (72.5°F)
Wind 190° at 11KT with gusts to 18KT
Clouds Skies are clear.
Visibility 10.0mi
Time observed: 2022-05-19T12:30:00Z

Mount Pleasant Rgnl (Airport) Details

Status Operational
Activation July 2002
Ownership Public
Usage Public
Chart MEMPHIS
ATC on-site No
Beacon schedule sunset-sunrise
Beacon color clear green

Mount Pleasant Rgnl (Airport) Contacts

Owner CITY OF MOUNT PLEASANT
Owner address 501 NORTH MADISON, MOUNT PLEASANT, TX 75455
Owner phone 903-575-4000
Manager CLINT BEDSOLE
Manager address 8449 PLYMOUTH LN, FRISCO, TX 75036
Manager phone 214-202-3203

Mount Pleasant Rgnl Radio Frequencies

Mount Pleasant Rgnl (Airport) Radio Frequencies

UNICOM 122.7
Common traffic advisory frequency (CTAF) 122.7